sensor_id;sensor_type;location;lat;lon;timestamp;pressure;altitude;pressure_sealevel;temperature;humidity
58979;BME280;44763;50.464;30.612;2023-11-18T00:01:25;100488.84;;;1.74;100.00
58979;BME280;44763;50.464;30.612;2023-11-18T00:03:27;100493.33;;;1.75;100.00
58979;BME280;44763;50.464;30.612;2023-11-18T00:05:29;100494.58;;;1.75;100.00
58979;BME280;44763;50.464;30.612;2023-11-18T00:07:31;100496.05;;;1.71;100.00
58979;BME280;44763;50.464;30.612;2023-11-18T00:09:34;100494.09;;;1.70;100.00
58979;BME280;44763;50.464;30.612;2023-11-18T00:11:37;100493.58;;;1.68;100.00
58979;BME280;44763;50.464;30.612;2023-11-18T00:13:40;100498.54;;;1.67;100.00
58979;BME280;44763;50.464;30.612;2023-11-18T00:15:43;100491.23;;;1.67;100.00
58979;BME280;44763;50.464;30.612;2023-11-18T00:17:48;100497.17;;;1.67;100.00
58979;BME280;44763;50.464;30.612;2023-11-18T00:19:50;100501.08;;;1.66;100.00
58979;BME280;44763;50.464;30.612;2023-11-18T00:21:51;100499.34;;;1.66;100.00
58979;BME280;44763;50.464;30.612;2023-11-18T00:23:53;100499.77;;;1.65;100.00
58979;BME280;44763;50.464;30.612;2023-11-18T00:25:58;100485.85;;;1.57;100.00
58979;BME280;44763;50.464;30.612;2023-11-18T00:28:01;100479.77;;;1.55;100.00
58979;BME280;44763;50.464;30.612;2023-11-18T00:30:06;100495.67;;;1.64;100.00
58979;BME280;44763;50.464;30.612;2023-11-18T00:32:15;100495.94;;;1.65;100.00
58979;BME280;44763;50.464;30.612;2023-11-18T00:34:19;100506.27;;;1.65;100.00
58979;BME280;44763;50.464;30.612;2023-11-18T00:36:21;100503.24;;;1.65;100.00
58979;BME280;44763;50.464;30.612;2023-11-18T00:38:23;100512.73;;;1.65;100.00
58979;BME280;44763;50.464;30.612;2023-11-18T00:40:25;100504.48;;;1.63;100.00
58979;BME280;44763;50.464;30.612;2023-11-18T00:42:28;100504.69;;;1.61;100.00
58979;BME280;44763;50.464;30.612;2023-11-18T00:44:30;100503.27;;;1.59;100.00
58979;BME280;44763;50.464;30.612;2023-11-18T00:46:32;100495.95;;;1.56;100.00
58979;BME280;44763;50.464;30.612;2023-11-18T00:48:38;100497.67;;;1.54;100.00
58979;BME280;44763;50.464;30.612;2023-11-18T00:50:40;100499.70;;;1.53;100.00
58979;BME280;44763;50.464;30.612;2023-11-18T00:52:44;100495.52;;;1.53;100.00
58979;BME280;44763;50.464;30.612;2023-11-18T00:54:51;100494.45;;;1.52;100.00
58979;BME280;44763;50.464;30.612;2023-11-18T00:56:53;100492.44;;;1.52;100.00
58979;BME280;44763;50.464;30.612;2023-11-18T00:58:55;100489.97;;;1.52;100.00
58979;BME280;44763;50.464;30.612;2023-11-18T01:00:57;100490.20;;;1.51;100.00
58979;BME280;44763;50.464;30.612;2023-11-18T01:03:00;100484.70;;;1.50;100.00
58979;BME280;44763;50.464;30.612;2023-11-18T01:05:03;100478.17;;;1.49;100.00
58979;BME280;44763;50.464;30.612;2023-11-18T01:07:05;100481.44;;;1.49;100.00
58979;BME280;44763;50.464;30.612;2023-11-18T01:09:08;100479.90;;;1.51;100.00
58979;BME280;44763;50.464;30.612;2023-11-18T01:11:15;100482.08;;;1.52;100.00
58979;BME280;44763;50.464;30.612;2023-11-18T01:13:18;100482.16;;;1.53;100.00
58979;BME280;44763;50.464;30.612;2023-11-18T01:15:19;100485.63;;;1.54;100.00
58979;BME280;44763;50.464;30.612;2023-11-18T01:17:22;100482.98;;;1.54;100.00
58979;BME280;44763;50.464;30.612;2023-11-18T01:19:24;100482.52;;;1.53;100.00
58979;BME280;44763;50.464;30.612;2023-11-18T01:21:26;100481.90;;;1.52;100.00
58979;BME280;44763;50.464;30.612;2023-11-18T01:23:29;100476.84;;;1.52;100.00
58979;BME280;44763;50.464;30.612;2023-11-18T01:25:30;100479.49;;;1.52;100.00
58979;BME280;44763;50.464;30.612;2023-11-18T01:27:32;100480.96;;;1.51;100.00
58979;BME280;44763;50.464;30.612;2023-11-18T01:29:36;100480.43;;;1.51;100.00
58979;BME280;44763;50.464;30.612;2023-11-18T01:31:39;100482.27;;;1.52;100.00
58979;BME280;44763;50.464;30.612;2023-11-18T01:33:53;100480.88;;;1.52;100.00
58979;BME280;44763;50.464;30.612;2023-11-18T01:35:56;100479.05;;;1.51;100.00
58979;BME280;44763;50.464;30.612;2023-11-18T01:37:58;100486.89;;;1.49;100.00
58979;BME280;44763;50.464;30.612;2023-11-18T01:40:00;100483.00;;;1.47;100.00
58979;BME280;44763;50.464;30.612;2023-11-18T01:42:07;100482.58;;;1.48;100.00
58979;BME280;44763;50.464;30.612;2023-11-18T01:44:09;100484.05;;;1.50;100.00
58979;BME280;44763;50.464;30.612;2023-11-18T01:46:11;100485.14;;;1.51;100.00
58979;BME280;44763;50.464;30.612;2023-11-18T01:48:15;100486.16;;;1.54;100.00
58979;BME280;44763;50.464;30.612;2023-11-18T01:50:17;100489.89;;;1.55;100.00
58979;BME280;44763;50.464;30.612;2023-11-18T01:52:20;100481.71;;;1.52;100.00
58979;BME280;44763;50.464;30.612;2023-11-18T01:54:23;100482.10;;;1.56;100.00
58979;BME280;44763;50.464;30.612;2023-11-18T01:56:27;100488.25;;;1.58;100.00
58979;BME280;44763;50.464;30.612;2023-11-18T01:58:29;100485.84;;;1.58;100.00
58979;BME280;44763;50.464;30.612;2023-11-18T02:00:34;100481.37;;;1.59;100.00
58979;BME280;44763;50.464;30.612;2023-11-18T02:02:36;100482.80;;;1.58;100.00
58979;BME280;44763;50.464;30.612;2023-11-18T02:04:40;100490.89;;;1.62;100.00
58979;BME280;44763;50.464;30.612;2023-11-18T02:06:43;100496.71;;;1.64;100.00
58979;BME280;44763;50.464;30.612;2023-11-18T02:08:47;100496.23;;;1.65;100.00
58979;BME280;44763;50.464;30.612;2023-11-18T02:10:55;100497.80;;;1.65;100.00
58979;BME280;44763;50.464;30.612;2023-11-18T02:13:22;100494.36;;;1.64;100.00
58979;BME280;44763;50.464;30.612;2023-11-18T02:15:27;100498.16;;;1.63;100.00
58979;BME280;44763;50.464;30.612;2023-11-18T02:17:32;100496.65;;;1.63;100.00
58979;BME280;44763;50.464;30.612;2023-11-18T02:19:35;100490.88;;;1.62;100.00
58979;BME280;44763;50.464;30.612;2023-11-18T02:21:38;100481.46;;;1.55;100.00
58979;BME280;44763;50.464;30.612;2023-11-18T02:23:42;100498.21;;;1.63;100.00
58979;BME280;44763;50.464;30.612;2023-11-18T02:25:46;100498.00;;;1.63;100.00
58979;BME280;44763;50.464;30.612;2023-11-18T02:27:49;100497.34;;;1.63;100.00
58979;BME280;44763;50.464;30.612;2023-11-18T02:29:52;100497.16;;;1.63;100.00
58979;BME280;44763;50.464;30.612;2023-11-18T02:31:58;100498.59;;;1.62;100.00
58979;BME280;44763;50.464;30.612;2023-11-18T02:34:14;100500.02;;;1.62;100.00
58979;BME280;44763;50.464;30.612;2023-11-18T02:36:25;100494.61;;;1.62;100.00
58979;BME280;44763;50.464;30.612;2023-11-18T02:38:35;100501.30;;;1.63;100.00
58979;BME280;44763;50.464;30.612;2023-11-18T02:40:41;100496.02;;;1.64;100.00
58979;BME280;44763;50.464;30.612;2023-11-18T02:42:47;100498.17;;;1.63;100.00
58979;BME280;44763;50.464;30.612;2023-11-18T02:44:52;100499.50;;;1.64;100.00
58979;BME280;44763;50.464;30.612;2023-11-18T02:47:02;100497.94;;;1.64;100.00
58979;BME280;44763;50.464;30.612;2023-11-18T02:49:06;100497.45;;;1.63;100.00
58979;BME280;44763;50.464;30.612;2023-11-18T02:51:08;100496.76;;;1.63;100.00
58979;BME280;44763;50.464;30.612;2023-11-18T02:53:11;100492.23;;;1.61;100.00
58979;BME280;44763;50.464;30.612;2023-11-18T02:55:13;100498.27;;;1.60;100.00
58979;BME280;44763;50.464;30.612;2023-11-18T02:57:15;100502.02;;;1.59;100.00
58979;BME280;44763;50.464;30.612;2023-11-18T02:59:17;100499.95;;;1.58;100.00
58979;BME280;44763;50.464;30.612;2023-11-18T03:01:19;100499.52;;;1.57;100.00
58979;BME280;44763;50.464;30.612;2023-11-18T03:03:21;100497.32;;;1.59;100.00
58979;BME280;44763;50.464;30.612;2023-11-18T03:05:23;100481.71;;;1.52;100.00
58979;BME280;44763;50.464;30.612;2023-11-18T03:07:28;100488.69;;;1.61;100.00
58979;BME280;44763;50.464;30.612;2023-11-18T03:09:33;100497.34;;;1.63;100.00
58979;BME280;44763;50.464;30.612;2023-11-18T03:11:38;100496.14;;;1.62;100.00
58979;BME280;44763;50.464;30.612;2023-11-18T03:13:40;100494.91;;;1.62;100.00
58979;BME280;44763;50.464;30.612;2023-11-18T03:15:43;100500.46;;;1.63;100.00
58979;BME280;44763;50.464;30.612;2023-11-18T03:17:45;100501.10;;;1.63;100.00
58979;BME280;44763;50.464;30.612;2023-11-18T03:19:49;100499.48;;;1.64;100.00
58979;BME280;44763;50.464;30.612;2023-11-18T03:21:52;100505.77;;;1.67;100.00
58979;BME280;44763;50.464;30.612;2023-11-18T03:23:55;100506.00;;;1.68;100.00
58979;BME280;44763;50.464;30.612;2023-11-18T03:25:58;100508.06;;;1.68;100.00
58979;BME280;44763;50.464;30.612;2023-11-18T03:28:00;100490.45;;;1.59;100.00
58979;BME280;44763;50.464;30.612;2023-11-18T03:30:03;100510.95;;;1.69;100.00
58979;BME280;44763;50.464;30.612;2023-11-18T03:32:06;100510.16;;;1.69;100.00
58979;BME280;44763;50.464;30.612;2023-11-18T03:34:08;100505.06;;;1.67;100.00
58979;BME280;44763;50.464;30.612;2023-11-18T03:36:10;100502.23;;;1.65;100.00
58979;BME280;44763;50.464;30.612;2023-11-18T03:38:14;100505.34;;;1.64;100.00
58979;BME280;44763;50.464;30.612;2023-11-18T03:40:16;100506.83;;;1.62;100.00
58979;BME280;44763;50.464;30.612;2023-11-18T03:42:18;100505.02;;;1.61;100.00
58979;BME280;44763;50.464;30.612;2023-11-18T03:44:21;100516.44;;;1.60;100.00
58979;BME280;44763;50.464;30.612;2023-11-18T03:46:23;100507.59;;;1.59;100.00
58979;BME280;44763;50.464;30.612;2023-11-18T03:48:25;100507.55;;;1.58;100.00
58979;BME280;44763;50.464;30.612;2023-11-18T03:50:26;100500.27;;;1.57;100.00
58979;BME280;44763;50.464;30.612;2023-11-18T03:52:29;100494.13;;;1.48;100.00
58979;BME280;44763;50.464;30.612;2023-11-18T03:54:31;100496.55;;;1.47;100.00
58979;BME280;44763;50.464;30.612;2023-11-18T03:56:33;100505.27;;;1.51;100.00
58979;BME280;44763;50.464;30.612;2023-11-18T03:58:35;100510.27;;;1.50;100.00
58979;BME280;44763;50.464;30.612;2023-11-18T04:00:37;100510.31;;;1.50;100.00
58979;BME280;44763;50.464;30.612;2023-11-18T04:02:38;100510.38;;;1.49;100.00
58979;BME280;44763;50.464;30.612;2023-11-18T04:04:41;100495.73;;;1.39;100.00
58979;BME280;44763;50.464;30.612;2023-11-18T04:06:44;100512.41;;;1.47;100.00
58979;BME280;44763;50.464;30.612;2023-11-18T04:08:48;100520.84;;;1.47;100.00
58979;BME280;44763;50.464;30.612;2023-11-18T04:10:50;100519.16;;;1.46;100.00
58979;BME280;44763;50.464;30.612;2023-11-18T04:12:52;100521.52;;;1.45;100.00
58979;BME280;44763;50.464;30.612;2023-11-18T04:14:54;100523.68;;;1.45;100.00
58979;BME280;44763;50.464;30.612;2023-11-18T04:16:56;100524.68;;;1.43;100.00
58979;BME280;44763;50.464;30.612;2023-11-18T04:18:59;100528.24;;;1.42;100.00
58979;BME280;44763;50.464;30.612;2023-11-18T04:21:03;100532.35;;;1.41;100.00
58979;BME280;44763;50.464;30.612;2023-11-18T04:23:05;100534.23;;;1.42;100.00
58979;BME280;44763;50.464;30.612;2023-11-18T04:25:08;100537.40;;;1.39;100.00
58979;BME280;44763;50.464;30.612;2023-11-18T04:27:12;100534.30;;;1.36;100.00
58979;BME280;44763;50.464;30.612;2023-11-18T04:29:15;100536.70;;;1.33;100.00
58979;BME280;44763;50.464;30.612;2023-11-18T04:31:17;100535.61;;;1.31;100.00
58979;BME280;44763;50.464;30.612;2023-11-18T04:33:19;100544.47;;;1.30;100.00
58979;BME280;44763;50.464;30.612;2023-11-18T04:35:21;100541.37;;;1.29;100.00
58979;BME280;44763;50.464;30.612;2023-11-18T04:37:24;100543.14;;;1.29;100.00
58979;BME280;44763;50.464;30.612;2023-11-18T04:39:26;100544.55;;;1.29;100.00
58979;BME280;44763;50.464;30.612;2023-11-18T04:41:30;100549.20;;;1.28;100.00
58979;BME280;44763;50.464;30.612;2023-11-18T04:43:33;100544.60;;;1.24;100.00
58979;BME280;44763;50.464;30.612;2023-11-18T04:45:46;100547.54;;;1.22;100.00
58979;BME280;44763;50.464;30.612;2023-11-18T04:47:48;100547.93;;;1.20;100.00
58979;BME280;44763;50.464;30.612;2023-11-18T04:49:52;100554.40;;;1.17;100.00
58979;BME280;44763;50.464;30.612;2023-11-18T04:51:54;100551.73;;;1.15;100.00
58979;BME280;44763;50.464;30.612;2023-11-18T04:53:56;100555.39;;;1.14;100.00
58979;BME280;44763;50.464;30.612;2023-11-18T04:55:59;100566.76;;;1.12;100.00
58979;BME280;44763;50.464;30.612;2023-11-18T04:58:01;100568.74;;;1.08;100.00
58979;BME280;44763;50.464;30.612;2023-11-18T05:00:03;100565.58;;;1.04;100.00
58979;BME280;44763;50.464;30.612;2023-11-18T05:02:12;100575.73;;;1.02;100.00
58979;BME280;44763;50.464;30.612;2023-11-18T05:04:15;100569.78;;;1.00;100.00
58979;BME280;44763;50.464;30.612;2023-11-18T05:06:18;100576.53;;;0.99;100.00
58979;BME280;44763;50.464;30.612;2023-11-18T05:08:22;100573.73;;;0.96;100.00
58979;BME280;44763;50.464;30.612;2023-11-18T05:10:24;100574.31;;;0.93;100.00
58979;BME280;44763;50.464;30.612;2023-11-18T05:12:26;100582.09;;;0.90;100.00
58979;BME280;44763;50.464;30.612;2023-11-18T05:14:32;100581.52;;;0.86;100.00
58979;BME280;44763;50.464;30.612;2023-11-18T05:16:34;100572.70;;;0.85;100.00
58979;BME280;44763;50.464;30.612;2023-11-18T05:18:36;100573.77;;;0.84;100.00
58979;BME280;44763;50.464;30.612;2023-11-18T05:20:38;100581.59;;;0.85;100.00
58979;BME280;44763;50.464;30.612;2023-11-18T05:22:41;100583.91;;;0.87;100.00
58979;BME280;44763;50.464;30.612;2023-11-18T05:24:43;100577.14;;;0.81;100.00
58979;BME280;44763;50.464;30.612;2023-11-18T05:26:46;100592.61;;;0.87;100.00
58979;BME280;44763;50.464;30.612;2023-11-18T05:28:47;100583.00;;;0.87;100.00
58979;BME280;44763;50.464;30.612;2023-11-18T05:30:51;100586.73;;;0.89;100.00
58979;BME280;44763;50.464;30.612;2023-11-18T05:32:54;100589.82;;;0.89;100.00
58979;BME280;44763;50.464;30.612;2023-11-18T05:34:56;100598.63;;;0.91;100.00
58979;BME280;44763;50.464;30.612;2023-11-18T05:36:59;100602.36;;;0.92;100.00
58979;BME280;44763;50.464;30.612;2023-11-18T05:39:03;100598.93;;;0.94;100.00
58979;BME280;44763;50.464;30.612;2023-11-18T05:41:07;100593.58;;;0.95;100.00
58979;BME280;44763;50.464;30.612;2023-11-18T05:43:18;100603.73;;;0.97;100.00
58979;BME280;44763;50.464;30.612;2023-11-18T05:45:22;100608.38;;;1.01;100.00
58979;BME280;44763;50.464;30.612;2023-11-18T05:47:34;100609.64;;;1.03;100.00
58979;BME280;44763;50.464;30.612;2023-11-18T05:49:36;100603.42;;;0.95;100.00
58979;BME280;44763;50.464;30.612;2023-11-18T05:51:39;100624.86;;;1.05;100.00
58979;BME280;44763;50.464;30.612;2023-11-18T05:53:42;100637.58;;;1.04;100.00
58979;BME280;44763;50.464;30.612;2023-11-18T05:55:47;100632.32;;;1.01;100.00
58979;BME280;44763;50.464;30.612;2023-11-18T05:57:49;100632.59;;;0.98;100.00
58979;BME280;44763;50.464;30.612;2023-11-18T05:59:51;100638.55;;;0.95;100.00
58979;BME280;44763;50.464;30.612;2023-11-18T06:01:53;100636.27;;;0.91;100.00
58979;BME280;44763;50.464;30.612;2023-11-18T06:03:55;100639.38;;;0.89;100.00
58979;BME280;44763;50.464;30.612;2023-11-18T06:05:58;100645.20;;;0.88;100.00
58979;BME280;44763;50.464;30.612;2023-11-18T06:08:00;100651.16;;;0.88;100.00
58979;BME280;44763;50.464;30.612;2023-11-18T06:10:03;100656.48;;;0.87;100.00
58979;BME280;44763;50.464;30.612;2023-11-18T06:12:08;100656.98;;;0.85;100.00
58979;BME280;44763;50.464;30.612;2023-11-18T06:14:11;100658.12;;;0.84;100.00
58979;BME280;44763;50.464;30.612;2023-11-18T06:16:16;100650.83;;;0.84;100.00
58979;BME280;44763;50.464;30.612;2023-11-18T06:18:18;100651.12;;;0.85;100.00
58979;BME280;44763;50.464;30.612;2023-11-18T06:20:20;100662.55;;;0.86;100.00
58979;BME280;44763;50.464;30.612;2023-11-18T06:24:28;100651.19;;;0.86;100.00
58979;BME280;44763;50.464;30.612;2023-11-18T06:26:30;100665.71;;;0.88;100.00
58979;BME280;44763;50.464;30.612;2023-11-18T06:28:32;100653.09;;;0.86;100.00
58979;BME280;44763;50.464;30.612;2023-11-18T06:30:35;100659.67;;;0.87;100.00
58979;BME280;44763;50.464;30.612;2023-11-18T06:32:37;100662.55;;;0.88;100.00
58979;BME280;44763;50.464;30.612;2023-11-18T06:34:40;100667.13;;;0.90;100.00
58979;BME280;44763;50.464;30.612;2023-11-18T06:36:42;100668.14;;;0.90;100.00
58979;BME280;44763;50.464;30.612;2023-11-18T06:38:45;100668.25;;;0.91;100.00
58979;BME280;44763;50.464;30.612;2023-11-18T06:40:48;100665.46;;;0.93;100.00
58979;BME280;44763;50.464;30.612;2023-11-18T06:42:53;100670.86;;;0.96;100.00
58979;BME280;44763;50.464;30.612;2023-11-18T06:45:03;100666.05;;;0.97;100.00
58979;BME280;44763;50.464;30.612;2023-11-18T06:47:07;100663.89;;;0.95;100.00
58979;BME280;44763;50.464;30.612;2023-11-18T06:49:10;100664.44;;;0.98;100.00
58979;BME280;44763;50.464;30.612;2023-11-18T06:51:17;100668.56;;;1.01;100.00
58979;BME280;44763;50.464;30.612;2023-11-18T06:53:19;100671.13;;;1.04;100.00
58979;BME280;44763;50.464;30.612;2023-11-18T06:55:22;100674.77;;;1.07;100.00
58979;BME280;44763;50.464;30.612;2023-11-18T06:57:24;100680.81;;;1.10;100.00
58979;BME280;44763;50.464;30.612;2023-11-18T06:59:25;100687.80;;;1.12;100.00
58979;BME280;44763;50.464;30.612;2023-11-18T07:01:27;100679.63;;;1.14;100.00
58979;BME280;44763;50.464;30.612;2023-11-18T07:03:32;100676.05;;;1.15;100.00
58979;BME280;44763;50.464;30.612;2023-11-18T07:05:35;100676.96;;;1.17;100.00
58979;BME280;44763;50.464;30.612;2023-11-18T07:07:37;100688.98;;;1.22;100.00
58979;BME280;44763;50.464;30.612;2023-11-18T07:09:40;100689.89;;;1.22;100.00
58979;BME280;44763;50.464;30.612;2023-11-18T07:11:42;100688.60;;;1.20;100.00
58979;BME280;44763;50.464;30.612;2023-11-18T07:13:45;100687.86;;;1.19;100.00
58979;BME280;44763;50.464;30.612;2023-11-18T07:15:47;100681.85;;;1.17;100.00
58979;BME280;44763;50.464;30.612;2023-11-18T07:17:49;100686.79;;;1.17;100.00
58979;BME280;44763;50.464;30.612;2023-11-18T07:19:58;100689.42;;;1.17;100.00
58979;BME280;44763;50.464;30.612;2023-11-18T07:22:00;100681.85;;;1.17;100.00
58979;BME280;44763;50.464;30.612;2023-11-18T07:24:08;100687.20;;;1.18;100.00
58979;BME280;44763;50.464;30.612;2023-11-18T07:26:10;100675.85;;;1.20;100.00
58979;BME280;44763;50.464;30.612;2023-11-18T07:28:13;100677.05;;;1.23;100.00
58979;BME280;44763;50.464;30.612;2023-11-18T07:30:16;100678.17;;;1.26;100.00
58979;BME280;44763;50.464;30.612;2023-11-18T07:32:20;100676.52;;;1.29;100.00
58979;BME280;44763;50.464;30.612;2023-11-18T07:34:22;100679.20;;;1.31;100.00
58979;BME280;44763;50.464;30.612;2023-11-18T07:36:25;100683.45;;;1.32;100.00
58979;BME280;44763;50.464;30.612;2023-11-18T07:38:27;100692.33;;;1.33;100.00
58979;BME280;44763;50.464;30.612;2023-11-18T07:40:29;100694.95;;;1.35;100.00
58979;BME280;44763;50.464;30.612;2023-11-18T07:42:31;100684.40;;;1.36;100.00
58979;BME280;44763;50.464;30.612;2023-11-18T07:44:37;100687.86;;;1.39;100.00
58979;BME280;44763;50.464;30.612;2023-11-18T07:46:40;100696.24;;;1.42;100.00
58979;BME280;44763;50.464;30.612;2023-11-18T07:48:45;100701.26;;;1.45;100.00
58979;BME280;44763;50.464;30.612;2023-11-18T07:50:47;100694.55;;;1.45;100.00
58979;BME280;44763;50.464;30.612;2023-11-18T07:52:50;100693.82;;;1.46;100.00
58979;BME280;44763;50.464;30.612;2023-11-18T07:54:52;100687.98;;;1.44;100.00
58979;BME280;44763;50.464;30.612;2023-11-18T07:56:56;100690.52;;;1.43;100.00
58979;BME280;44763;50.464;30.612;2023-11-18T07:58:59;100698.23;;;1.43;100.00
58979;BME280;44763;50.464;30.612;2023-11-18T08:01:03;100698.19;;;1.41;100.00
58979;BME280;44763;50.464;30.612;2023-11-18T08:03:09;100695.44;;;1.39;100.00
58979;BME280;44763;50.464;30.612;2023-11-18T08:05:15;100700.11;;;1.39;100.00
58979;BME280;44763;50.464;30.612;2023-11-18T08:07:18;100707.67;;;1.39;100.00
58979;BME280;44763;50.464;30.612;2023-11-18T08:09:20;100705.65;;;1.40;100.00
58979;BME280;44763;50.464;30.612;2023-11-18T08:11:27;100705.17;;;1.44;100.00
58979;BME280;44763;50.464;30.612;2023-11-18T08:13:29;100701.35;;;1.46;100.00
58979;BME280;44763;50.464;30.612;2023-11-18T08:15:31;100701.23;;;1.47;100.00
58979;BME280;44763;50.464;30.612;2023-11-18T08:17:33;100720.90;;;1.49;100.00
58979;BME280;44763;50.464;30.612;2023-11-18T08:19:35;100710.76;;;1.42;100.00
58979;BME280;44763;50.464;30.612;2023-11-18T08:21:39;100724.91;;;1.51;100.00
58979;BME280;44763;50.464;30.612;2023-11-18T08:23:42;100721.61;;;1.51;100.00
58979;BME280;44763;50.464;30.612;2023-11-18T08:25:44;100727.21;;;1.51;100.00
58979;BME280;44763;50.464;30.612;2023-11-18T08:27:48;100726.90;;;1.50;100.00
58979;BME280;44763;50.464;30.612;2023-11-18T08:29:50;100720.52;;;1.51;100.00
58979;BME280;44763;50.464;30.612;2023-11-18T08:31:52;100725.09;;;1.55;100.00
58979;BME280;44763;50.464;30.612;2023-11-18T08:33:54;100731.56;;;1.60;100.00
58979;BME280;44763;50.464;30.612;2023-11-18T08:35:56;100733.05;;;1.63;100.00
58979;BME280;44763;50.464;30.612;2023-11-18T08:37:58;100740.27;;;1.65;100.00
58979;BME280;44763;50.464;30.612;2023-11-18T08:40:06;100727.19;;;1.62;100.00
58979;BME280;44763;50.464;30.612;2023-11-18T08:42:22;100734.85;;;1.72;100.00
58979;BME280;44763;50.464;30.612;2023-11-18T08:47:07;100747.48;;;1.81;100.00
58979;BME280;44763;50.464;30.612;2023-11-18T08:49:10;100755.98;;;1.86;100.00
58979;BME280;44763;50.464;30.612;2023-11-18T08:51:14;100756.11;;;1.91;100.00
58979;BME280;44763;50.464;30.612;2023-11-18T08:53:18;100731.84;;;1.90;100.00
58979;BME280;44763;50.464;30.612;2023-11-18T08:55:20;100732.23;;;2.03;100.00
58979;BME280;44763;50.464;30.612;2023-11-18T08:57:23;100722.00;;;2.03;100.00
58979;BME280;44763;50.464;30.612;2023-11-18T08:59:27;100738.02;;;2.20;100.00
58979;BME280;44763;50.464;30.612;2023-11-18T09:01:29;100736.50;;;2.26;100.00
58979;BME280;44763;50.464;30.612;2023-11-18T09:03:33;100748.00;;;2.25;100.00
58979;BME280;44763;50.464;30.612;2023-11-18T09:05:39;100739.78;;;2.22;100.00
58979;BME280;44763;50.464;30.612;2023-11-18T09:07:44;100737.27;;;2.18;100.00
58979;BME280;44763;50.464;30.612;2023-11-18T09:09:49;100734.49;;;2.16;100.00
58979;BME280;44763;50.464;30.612;2023-11-18T09:11:55;100738.38;;;2.18;100.00
58979;BME280;44763;50.464;30.612;2023-11-18T09:14:00;100730.05;;;2.21;100.00
58979;BME280;44763;50.464;30.612;2023-11-18T09:16:05;100739.41;;;2.25;100.00
58979;BME280;44763;50.464;30.612;2023-11-18T09:18:11;100731.11;;;2.27;100.00
58979;BME280;44763;50.464;30.612;2023-11-18T09:20:13;100728.52;;;2.31;100.00
58979;BME280;44763;50.464;30.612;2023-11-18T09:22:19;100729.81;;;2.32;100.00
58979;BME280;44763;50.464;30.612;2023-11-18T09:24:20;100731.98;;;2.34;100.00
58979;BME280;44763;50.464;30.612;2023-11-18T09:26:27;100722.10;;;2.37;100.00
58979;BME280;44763;50.464;30.612;2023-11-18T09:28:32;100715.20;;;2.40;100.00
58979;BME280;44763;50.464;30.612;2023-11-18T09:30:34;100707.70;;;2.43;100.00
58979;BME280;44763;50.464;30.612;2023-11-18T09:32:36;100706.70;;;2.43;100.00
58979;BME280;44763;50.464;30.612;2023-11-18T09:34:40;100715.78;;;2.58;100.00
58979;BME280;44763;50.464;30.612;2023-11-18T09:36:43;100716.36;;;2.58;100.00
58979;BME280;44763;50.464;30.612;2023-11-18T09:38:47;100714.09;;;2.55;100.00
58979;BME280;44763;50.464;30.612;2023-11-18T09:40:52;100719.29;;;2.52;100.00
58979;BME280;44763;50.464;30.612;2023-11-18T09:42:54;100707.50;;;2.50;100.00
58979;BME280;44763;50.464;30.612;2023-11-18T09:45:00;100707.52;;;2.50;100.00
58979;BME280;44763;50.464;30.612;2023-11-18T09:47:08;100702.30;;;2.49;100.00
58979;BME280;44763;50.464;30.612;2023-11-18T09:49:24;100700.09;;;2.48;100.00
58979;BME280;44763;50.464;30.612;2023-11-18T09:51:38;100697.47;;;2.50;100.00
58979;BME280;44763;50.464;30.612;2023-11-18T09:53:42;100676.66;;;2.45;100.00
58979;BME280;44763;50.464;30.612;2023-11-18T09:56:07;100704.17;;;2.55;100.00
58979;BME280;44763;50.464;30.612;2023-11-18T09:58:21;100701.75;;;2.52;100.00
58979;BME280;44763;50.464;30.612;2023-11-18T10:00:28;100694.96;;;2.47;100.00
58979;BME280;44763;50.464;30.612;2023-11-18T10:02:35;100698.71;;;2.44;100.00
58979;BME280;44763;50.464;30.612;2023-11-18T10:04:38;100705.56;;;2.40;100.00
58979;BME280;44763;50.464;30.612;2023-11-18T10:06:43;100698.41;;;2.35;100.00
58979;BME280;44763;50.464;30.612;2023-11-18T10:08:46;100686.53;;;2.32;100.00
58979;BME280;44763;50.464;30.612;2023-11-18T10:10:48;100677.14;;;2.31;100.00
58979;BME280;44763;50.464;30.612;2023-11-18T10:12:51;100674.27;;;2.32;100.00
58979;BME280;44763;50.464;30.612;2023-11-18T10:15:00;100673.70;;;2.34;100.00
58979;BME280;44763;50.464;30.612;2023-11-18T10:17:06;100671.21;;;2.37;100.00
58979;BME280;44763;50.464;30.612;2023-11-18T10:19:08;100673.39;;;2.36;100.00
58979;BME280;44763;50.464;30.612;2023-11-18T10:21:13;100681.35;;;2.31;100.00
58979;BME280;44763;50.464;30.612;2023-11-18T10:23:21;100677.17;;;2.24;100.00
58979;BME280;44763;50.464;30.612;2023-11-18T10:25:24;100674.14;;;2.17;100.00
58979;BME280;44763;50.464;30.612;2023-11-18T10:27:27;100677.37;;;2.11;100.00
58979;BME280;44763;50.464;30.612;2023-11-18T10:29:30;100676.21;;;2.10;100.00
58979;BME280;44763;50.464;30.612;2023-11-18T10:31:34;100676.73;;;2.10;100.00
58979;BME280;44763;50.464;30.612;2023-11-18T10:33:38;100678.27;;;2.08;100.00
58979;BME280;44763;50.464;30.612;2023-11-18T10:35:50;100683.04;;;2.08;100.00
58979;BME280;44763;50.464;30.612;2023-11-18T10:38:02;100684.79;;;2.06;100.00
58979;BME280;44763;50.464;30.612;2023-11-18T10:40:07;100693.06;;;2.03;100.00
58979;BME280;44763;50.464;30.612;2023-11-18T10:42:10;100691.79;;;2.02;100.00
58979;BME280;44763;50.464;30.612;2023-11-18T10:44:13;100693.54;;;2.04;100.00